createdAt,value
2018-11-07T00:00:17.699Z,99802.56
2018-11-07T00:02:47.016Z,99804.09
2018-11-07T00:05:17.593Z,99800.34
2018-11-07T00:07:47.053Z,99806.21
2018-11-07T00:10:16.524Z,99811.06
2018-11-07T00:12:45.791Z,99797.16
2018-11-07T00:15:15.906Z,99804.01
2018-11-07T00:17:45.097Z,99801.73
2018-11-07T00:20:14.329Z,99800.94
2018-11-07T00:22:43.640Z,99805.80
2018-11-07T00:25:13.341Z,99802.94
2018-11-07T00:27:42.450Z,99812.63
2018-11-07T00:30:11.829Z,99805.81
2018-11-07T00:32:40.822Z,99807.62
2018-11-07T00:35:10.943Z,99797.05
2018-11-07T00:37:40.092Z,99798.52
2018-11-07T00:40:09.047Z,99808.68
2018-11-07T00:42:37.989Z,99810.44
2018-11-07T00:45:08.896Z,99811.27
2018-11-07T00:47:37.858Z,99806.10
2018-11-07T00:50:09.373Z,99807.29
2018-11-07T00:52:38.303Z,99809.60
2018-11-07T00:55:07.278Z,99804.28
2018-11-07T00:57:36.198Z,99810.99
2018-11-07T01:00:07.828Z,99823.78
2018-11-07T01:02:36.745Z,99825.75
2018-11-07T01:05:06.080Z,99817.78
2018-11-07T01:07:35.006Z,99826.59
2018-11-07T01:10:04.558Z,99820.63
2018-11-07T01:12:33.453Z,99824.64
2018-11-07T01:15:02.410Z,99829.16
2018-11-07T01:17:31.329Z,99815.88
2018-11-07T01:20:00.531Z,99817.23
2018-11-07T01:22:30.063Z,99808.70
2018-11-07T01:24:59.190Z,99813.73
2018-11-07T01:27:28.219Z,99818.45
2018-11-07T01:29:57.247Z,99816.25
2018-11-07T01:32:26.193Z,99816.64
2018-11-07T01:34:55.145Z,99822.15
2018-11-07T01:37:24.038Z,99825.30
2018-11-07T01:39:52.994Z,99831.91
2018-11-07T01:42:21.914Z,99829.68
2018-11-07T01:44:50.905Z,99825.03
2018-11-07T01:47:19.829Z,99828.88
2018-11-07T01:49:48.777Z,99823.45
2018-11-07T01:52:17.693Z,99828.07
2018-11-07T01:54:46.655Z,99822.89
2018-11-07T01:57:15.578Z,99814.19
2018-11-07T01:59:44.566Z,99809.39
2018-11-07T02:02:13.457Z,99798.05
2018-11-07T02:04:42.436Z,99792.48
2018-11-07T02:07:11.360Z,99790.12
2018-11-07T02:09:40.294Z,99781.59
2018-11-07T02:12:09.230Z,99788.21
2018-11-07T02:14:38.222Z,99790.49
2018-11-07T02:17:07.189Z,99783.06
2018-11-07T02:19:36.924Z,99785.38
2018-11-07T02:22:05.847Z,99792.03
2018-11-07T02:24:34.859Z,99801.19
2018-11-07T02:27:03.770Z,99791.94
2018-11-07T02:29:32.731Z,99797.49
2018-11-07T02:32:01.633Z,99799.23
2018-11-07T02:34:30.568Z,99794.06
2018-11-07T02:36:59.626Z,99793.51
2018-11-07T02:39:28.577Z,99784.55
2018-11-07T02:41:57.562Z,99790.15
2018-11-07T02:44:26.472Z,99798.85
2018-11-07T02:46:55.370Z,99797.45
2018-11-07T02:49:24.346Z,99792.31
2018-11-07T02:51:53.244Z,99792.84
2018-11-07T02:54:22.185Z,99803.30
2018-11-07T02:56:51.146Z,99814.55
2018-11-07T02:59:20.099Z,99819.98
2018-11-07T03:01:49.030Z,99820.17
2018-11-07T03:04:18.010Z,99812.20
2018-11-07T03:06:46.939Z,99800.77
2018-11-07T03:09:15.954Z,99799.22
2018-11-07T03:11:44.955Z,99808.13
2018-11-07T03:14:13.939Z,99791.16
2018-11-07T03:16:42.865Z,99785.91
2018-11-07T03:19:12.029Z,99789.02
2018-11-07T03:21:40.961Z,99795.92
2018-11-07T03:24:09.917Z,99798.14
2018-11-07T03:26:38.904Z,99799.39
2018-11-07T03:29:07.852Z,99799.20
2018-11-07T03:31:36.832Z,99794.16
2018-11-07T03:34:05.870Z,99791.59
2018-11-07T03:36:34.842Z,99801.72
2018-11-07T03:39:04.511Z,99800.37
2018-11-07T03:41:33.664Z,99801.31
2018-11-07T03:44:03.070Z,99801.23
2018-11-07T03:46:32.019Z,99787.47
2018-11-07T03:49:00.954Z,99786.47
2018-11-07T03:51:29.966Z,99791.22
2018-11-07T03:53:58.901Z,99797.51
2018-11-07T03:56:27.853Z,99788.37
2018-11-07T03:58:56.873Z,99797.73
2018-11-07T04:01:25.909Z,99796.58
2018-11-07T04:03:55.413Z,99796.59
2018-11-07T04:06:24.424Z,99796.27
2018-11-07T04:08:53.381Z,99793.41
2018-11-07T04:11:22.361Z,99778.88
2018-11-07T04:13:51.341Z,99787.87
2018-11-07T04:16:20.336Z,99790.52
2018-11-07T04:18:49.262Z,99787.14
2018-11-07T04:21:18.233Z,99792.47
2018-11-07T04:24:02.669Z,99796.85
2018-11-07T04:26:33.078Z,99802.02
2018-11-07T04:29:02.347Z,99812.95
2018-11-07T04:31:31.957Z,99806.73
2018-11-07T04:34:01.291Z,99809.66
2018-11-07T04:36:30.543Z,99813.70
2018-11-07T04:38:59.840Z,99809.60
2018-11-07T04:41:29.036Z,99815.17
2018-11-07T04:43:58.284Z,99809.27
2018-11-07T04:46:27.658Z,99821.19
2018-11-07T04:48:56.964Z,99815.45
2018-11-07T04:51:26.134Z,99811.80
2018-11-07T04:53:55.388Z,99810.24
2018-11-07T04:56:24.637Z,99814.41
2018-11-07T04:58:53.980Z,99807.88
2018-11-07T05:01:23.274Z,99812.27
2018-11-07T05:03:52.543Z,99798.77
2018-11-07T05:06:21.702Z,99815.34
2018-11-07T05:08:50.819Z,99809.37
2018-11-07T05:11:20.026Z,99815.59
2018-11-07T05:13:49.362Z,99811.76
2018-11-07T05:16:18.631Z,99816.44
2018-11-07T05:18:47.929Z,99814.81
2018-11-07T05:21:17.306Z,99819.92
2018-11-07T05:23:46.570Z,99821.44
2018-11-07T05:26:15.924Z,99834.90
2018-11-07T05:28:45.048Z,99830.11
2018-11-07T05:31:14.343Z,99832.44
2018-11-07T05:33:43.732Z,99830.63
2018-11-07T05:36:12.904Z,99844.62
2018-11-07T05:38:42.256Z,99830.77
2018-11-07T05:41:11.570Z,99856.47
2018-11-07T05:43:40.852Z,99848.09
2018-11-07T05:46:10.074Z,99853.02
2018-11-07T05:48:39.358Z,99852.55
2018-11-07T05:51:08.617Z,99853.67
2018-11-07T05:53:37.946Z,99861.94
2018-11-07T05:56:07.253Z,99857.27
2018-11-07T05:58:36.660Z,99855.09
2018-11-07T06:01:06.226Z,99851.52
2018-11-07T06:03:35.208Z,99862.48
2018-11-07T06:06:04.511Z,99855.06
2018-11-07T06:08:33.655Z,99853.60
2018-11-07T06:11:02.932Z,99847.91
2018-11-07T06:13:31.903Z,99853.20
2018-11-07T06:16:00.879Z,99843.59
2018-11-07T06:18:29.829Z,99841.67
2018-11-07T06:20:58.845Z,99841.55
2018-11-07T06:23:27.853Z,99830.84
2018-11-07T06:25:56.760Z,99841.94
2018-11-07T06:31:56.138Z,99846.41
2018-11-07T06:34:25.326Z,99842.56
2018-11-07T06:36:54.598Z,99852.05
2018-11-07T06:39:23.825Z,99854.34
2018-11-07T06:41:53.116Z,99851.01
2018-11-07T06:44:22.469Z,99862.56
2018-11-07T06:46:51.770Z,99853.70
2018-11-07T06:49:21.018Z,99867.98
2018-11-07T06:51:50.234Z,99871.69
2018-11-07T06:54:19.550Z,99857.82
2018-11-07T06:56:48.830Z,99855.89
2018-11-07T06:59:18.190Z,99856.11
2018-11-07T07:01:47.538Z,99857.58
2018-11-07T07:04:17.110Z,99859.18
2018-11-07T07:06:46.353Z,99878.77
2018-11-07T07:09:15.726Z,99867.91
2018-11-07T07:11:45.032Z,99875.17
2018-11-07T07:14:14.310Z,99882.38
2018-11-07T07:16:43.569Z,99879.58
2018-11-07T07:19:13.168Z,99884.89
2018-11-07T07:21:42.508Z,99887.02
2018-11-07T07:24:12.065Z,99887.16
2018-11-07T07:26:41.572Z,99888.44
2018-11-07T07:29:10.863Z,99883.12
2018-11-07T07:31:40.657Z,99889.67
2018-11-07T07:34:10.085Z,99885.63
2018-11-07T07:36:39.795Z,99887.99
2018-11-07T07:39:10.575Z,99888.70
2018-11-07T07:41:39.946Z,99887.63
2018-11-07T07:44:09.702Z,99883.44
2018-11-07T07:46:39.048Z,99890.73
2018-11-07T07:49:08.306Z,99894.08
2018-11-07T07:51:37.671Z,99900.10
2018-11-07T07:54:06.894Z,99901.37
2018-11-07T07:56:36.182Z,99898.69
2018-11-07T07:59:05.525Z,99902.87
2018-11-07T08:01:35.247Z,99895.97
2018-11-07T08:04:04.655Z,99902.22
2018-11-07T08:06:36.153Z,99895.63
2018-11-07T08:09:07.618Z,99893.95
2018-11-07T08:11:36.957Z,99893.43
2018-11-07T08:14:06.653Z,99886.40
2018-11-07T08:16:35.977Z,99889.42
2018-11-07T08:19:05.350Z,99892.67
2018-11-07T08:21:34.583Z,99889.97
2018-11-07T08:24:03.837Z,99899.17
2018-11-07T08:26:33.094Z,99899.38
2018-11-07T08:29:02.336Z,99893.33
2018-11-07T08:31:32.309Z,99894.53
2018-11-07T08:34:01.542Z,99901.40
2018-11-07T08:36:30.797Z,99897.25
2018-11-07T08:39:00.190Z,99898.04
2018-11-07T08:41:29.624Z,99896.97
2018-11-07T08:43:59.215Z,99893.28
2018-11-07T08:46:28.811Z,99895.23
2018-11-07T08:48:58.114Z,99897.11
2018-11-07T08:51:27.431Z,99893.77
2018-11-07T08:53:56.676Z,99894.74
2018-11-07T08:56:26.019Z,99898.17
2018-11-07T08:58:55.285Z,99906.07
2018-11-07T09:01:24.695Z,99899.61
2018-11-07T09:03:53.977Z,99900.66
2018-11-07T09:06:23.115Z,99900.36
2018-11-07T09:08:52.388Z,99904.19
2018-11-07T09:11:21.714Z,99904.99
2018-11-07T09:13:51.088Z,99904.53
2018-11-07T09:16:20.412Z,99892.13
2018-11-07T09:18:49.695Z,99892.47
2018-11-07T09:21:19.062Z,99893.13
2018-11-07T09:23:48.424Z,99888.20
2018-11-07T09:26:17.728Z,99895.37
2018-11-07T09:28:46.902Z,99894.84
2018-11-07T09:31:16.230Z,99897.53
2018-11-07T09:33:45.620Z,99899.36
2018-11-07T09:36:14.897Z,99902.75
2018-11-07T09:38:44.228Z,99904.64
2018-11-07T09:41:13.732Z,99898.84
2018-11-07T09:43:43.126Z,99891.39
2018-11-07T09:46:12.347Z,99895.34
2018-11-07T09:48:41.524Z,99901.59
2018-11-07T09:51:11.054Z,99902.45
2018-11-07T09:53:40.327Z,99898.47
2018-11-07T09:56:09.662Z,99902.34
2018-11-07T09:58:38.901Z,99904.14
2018-11-07T10:01:08.250Z,99909.70
2018-11-07T10:03:37.500Z,99906.88
2018-11-07T10:06:07.038Z,99902.39
2018-11-07T10:08:36.313Z,99904.73
2018-11-07T10:11:05.675Z,99910.03
2018-11-07T10:13:34.991Z,99905.33
2018-11-07T10:16:04.233Z,99907.14
2018-11-07T10:18:33.628Z,99903.81
2018-11-07T10:21:02.918Z,99906.73
2018-11-07T10:23:32.138Z,99910.09
2018-11-07T10:26:01.320Z,99898.38
2018-11-07T10:28:30.852Z,99904.97
2018-11-07T10:30:59.777Z,99893.48
2018-11-07T10:33:29.035Z,99895.65
2018-11-07T10:35:58.206Z,99891.81
2018-11-07T10:38:27.364Z,99887.02
2018-11-07T10:40:56.596Z,99888.20
2018-11-07T10:43:26.054Z,99887.02
2018-11-07T10:45:55.481Z,99887.55
2018-11-07T10:48:24.745Z,99890.56
2018-11-07T10:50:53.914Z,99886.05
2018-11-07T10:53:23.549Z,99886.37
2018-11-07T10:55:52.858Z,99883.16
2018-11-07T10:58:22.164Z,99876.23
2018-11-07T11:01:54.052Z,99874.08
2018-11-07T11:04:23.272Z,99882.48
2018-11-07T11:06:52.519Z,99878.47
2018-11-07T11:09:21.686Z,99876.83
2018-11-07T11:11:50.993Z,99868.00
2018-11-07T11:14:20.424Z,99872.59
2018-11-07T11:16:49.852Z,99875.50
2018-11-07T11:19:19.080Z,99875.52
2018-11-07T11:21:48.438Z,99877.51
2018-11-07T11:24:17.790Z,99877.23
2018-11-07T11:26:47.128Z,99873.16
2018-11-07T11:29:16.576Z,99875.34
2018-11-07T11:31:45.931Z,99871.06
2018-11-07T11:34:15.592Z,99862.45
2018-11-07T11:36:44.702Z,99862.14
2018-11-07T11:39:14.346Z,99858.42
2018-11-07T11:41:44.103Z,99862.34
2018-11-07T11:44:14.506Z,99858.22
2018-11-07T11:46:44.142Z,99852.16
2018-11-07T11:49:13.668Z,99852.86
2018-11-07T11:51:42.796Z,99848.42
2018-11-07T11:54:12.405Z,99849.30
2018-11-07T11:56:42.014Z,99849.98
2018-11-07T11:59:11.607Z,99846.72
2018-11-07T12:01:40.864Z,99838.19
2018-11-07T12:04:10.118Z,99840.56
2018-11-07T12:06:39.418Z,99834.53
2018-11-07T12:09:10.959Z,99833.05
2018-11-07T12:11:40.388Z,99827.82
2018-11-07T12:14:10.082Z,99828.11
2018-11-07T12:16:39.282Z,99823.16
2018-11-07T12:19:08.627Z,99821.10
2018-11-07T12:21:37.877Z,99819.08
2018-11-07T12:24:07.335Z,99815.84
2018-11-07T12:26:36.480Z,99818.94
2018-11-07T12:29:05.878Z,99821.73
2018-11-07T12:31:34.980Z,99812.25
2018-11-07T12:34:04.277Z,99809.32
2018-11-07T12:36:33.647Z,99805.23
2018-11-07T12:39:02.865Z,99801.84
2018-11-07T12:41:32.134Z,99800.77
2018-11-07T12:44:01.377Z,99804.17
2018-11-07T12:46:30.766Z,99810.17
2018-11-07T12:49:00.054Z,99800.60
2018-11-07T12:51:29.361Z,99802.77
2018-11-07T12:53:58.702Z,99805.84
2018-11-07T12:56:27.934Z,99804.84
2018-11-07T12:58:57.283Z,99810.10
2018-11-07T13:01:26.542Z,99808.56
2018-11-07T13:03:55.702Z,99807.25
2018-11-07T13:06:24.834Z,99800.11
2018-11-07T13:08:54.546Z,99803.13
2018-11-07T13:11:23.979Z,99803.60
2018-11-07T13:13:53.750Z,99807.99
2018-11-07T13:16:23.383Z,99811.48
2018-11-07T13:18:54.490Z,99808.75
2018-11-07T13:21:23.631Z,99812.80
2018-11-07T13:23:53.074Z,99811.03
2018-11-07T13:26:22.427Z,99809.07
2018-11-07T13:28:51.884Z,99820.73
2018-11-07T13:31:21.013Z,99819.06
2018-11-07T13:33:50.275Z,99817.72
2018-11-07T13:36:19.541Z,99818.37
2018-11-07T13:38:49.239Z,99816.12
2018-11-07T13:41:18.106Z,99820.72
2018-11-07T13:43:47.315Z,99818.06
2018-11-07T13:46:16.820Z,99816.94
2018-11-07T13:48:46.357Z,99815.28
2018-11-07T13:51:15.673Z,99816.94
2018-11-07T13:53:44.929Z,99815.33
2018-11-07T13:56:14.073Z,99810.72
2018-11-07T13:58:43.944Z,99812.00
2018-11-07T14:01:13.210Z,99818.63
2018-11-07T14:03:42.575Z,99813.28
2018-11-07T14:06:11.834Z,99817.92
2018-11-07T14:08:41.195Z,99819.27
2018-11-07T14:11:10.501Z,99822.87
2018-11-07T14:13:39.757Z,99823.62
2018-11-07T14:16:09.174Z,99822.39
2018-11-07T14:18:38.362Z,99823.54
2018-11-07T14:21:07.897Z,99833.53
2018-11-07T14:23:37.039Z,99823.95
2018-11-07T14:26:06.459Z,99828.11
2018-11-07T14:28:36.036Z,99833.13
2018-11-07T14:31:05.270Z,99837.58
2018-11-07T14:33:34.595Z,99835.17
2018-11-07T14:36:04.124Z,99846.80
2018-11-07T14:38:33.375Z,99846.06
2018-11-07T14:41:02.825Z,99843.27
2018-11-07T14:43:32.090Z,99848.44
2018-11-07T14:46:01.549Z,99854.18
2018-11-07T14:48:30.797Z,99853.83
2018-11-07T14:51:00.514Z,99863.70
2018-11-07T14:53:30.137Z,99858.53
2018-11-07T14:55:59.342Z,99867.14
2018-11-07T14:58:28.845Z,99868.13
2018-11-07T15:00:58.276Z,99866.55
2018-11-07T15:03:27.951Z,99869.77
2018-11-07T15:05:57.390Z,99878.30
2018-11-07T15:08:26.753Z,99878.86
2018-11-07T15:10:56.087Z,99883.23
2018-11-07T15:13:25.343Z,99877.91
2018-11-07T15:15:54.541Z,99871.89
2018-11-07T15:18:23.829Z,99879.77
2018-11-07T15:20:53.256Z,99878.75
2018-11-07T15:23:22.533Z,99870.70
2018-11-07T15:25:51.862Z,99871.19
2018-11-07T15:28:21.003Z,99883.59
2018-11-07T15:30:50.450Z,99883.45
2018-11-07T15:33:19.610Z,99894.73
2018-11-07T15:35:48.762Z,99886.86
2018-11-07T15:38:17.904Z,99889.89
2018-11-07T15:40:47.083Z,99890.27
2018-11-07T15:43:16.598Z,99897.31
2018-11-07T15:45:45.861Z,99897.37
2018-11-07T15:48:15.151Z,99901.33
2018-11-07T15:51:51.448Z,99893.31
2018-11-07T15:54:20.826Z,99890.66
2018-11-07T15:56:50.259Z,99887.45
2018-11-07T15:59:19.483Z,99901.87
2018-11-07T16:01:48.643Z,99907.81
2018-11-07T16:04:17.793Z,99905.47
2018-11-07T16:06:46.905Z,99901.97
2018-11-07T16:09:16.195Z,99914.20
2018-11-07T16:11:45.647Z,99925.23
2018-11-07T16:14:14.899Z,99932.33
2018-11-07T16:16:44.442Z,99936.51
2018-11-07T16:19:13.604Z,99941.83
2018-11-07T16:21:42.881Z,99947.63
2018-11-07T16:24:12.134Z,99960.50
2018-11-07T16:26:41.319Z,99961.85
2018-11-07T16:29:10.623Z,99962.36
2018-11-07T16:31:39.900Z,99962.69
2018-11-07T16:34:08.858Z,99972.52
2018-11-07T16:36:38.146Z,99982.89
2018-11-07T16:39:09.362Z,99981.67
2018-11-07T16:41:38.699Z,99977.02
2018-11-07T16:44:07.842Z,99986.76
2018-11-07T16:46:37.169Z,99985.74
2018-11-07T16:49:07.033Z,99988.71
2018-11-07T16:51:36.382Z,100000.48
2018-11-07T16:54:06.985Z,99995.18
2018-11-07T16:56:36.332Z,99998.63
2018-11-07T16:59:05.803Z,100016.79
2018-11-07T17:01:35.220Z,100021.55
2018-11-07T17:04:04.481Z,100027.63
2018-11-07T17:06:33.754Z,100037.98
2018-11-07T17:09:03.083Z,100034.53
2018-11-07T17:11:32.425Z,100029.34
2018-11-07T17:14:01.893Z,100038.46
2018-11-07T17:16:31.239Z,100040.81
2018-11-07T17:19:00.621Z,100042.36
2018-11-07T17:21:30.251Z,100049.75
2018-11-07T17:23:59.680Z,100050.03
2018-11-07T17:26:29.075Z,100062.10
2018-11-07T17:28:58.773Z,100059.28
2018-11-07T17:31:28.294Z,100064.58
2018-11-07T17:33:57.682Z,100068.88
2018-11-07T17:36:26.982Z,100064.61
2018-11-07T17:38:57.032Z,100076.62
2018-11-07T17:41:26.328Z,100071.58
2018-11-07T17:43:56.354Z,100075.59
2018-11-07T17:46:25.600Z,100080.47
2018-11-07T17:48:54.900Z,100081.56
2018-11-07T17:51:24.305Z,100090.77
2018-11-07T17:53:53.587Z,100087.17
2018-11-07T17:56:46.718Z,100102.42
2018-11-07T17:59:15.968Z,100095.64
2018-11-07T18:01:45.672Z,100094.37
2018-11-07T18:04:15.064Z,100092.58
2018-11-07T18:06:44.377Z,100092.75
2018-11-07T18:09:13.862Z,100097.98
2018-11-07T18:11:42.949Z,100101.45
2018-11-07T18:14:12.158Z,100099.83
2018-11-07T18:16:41.440Z,100102.48
2018-11-07T18:19:10.708Z,100096.32
2018-11-07T18:21:39.937Z,100097.97
2018-11-07T18:24:09.265Z,100108.88
2018-11-07T18:26:38.412Z,100105.49
2018-11-07T18:29:07.743Z,100106.21
2018-11-07T18:31:37.009Z,100110.32
2018-11-07T18:34:07.001Z,100111.50
2018-11-07T18:36:35.990Z,100121.24
2018-11-07T18:39:08.138Z,100124.63
2018-11-07T18:41:37.175Z,100123.52
2018-11-07T18:44:06.525Z,100130.32
2018-11-07T18:46:35.610Z,100134.41
2018-11-07T18:49:04.630Z,100141.89
2018-11-07T18:51:33.733Z,100144.33
2018-11-07T18:54:03.038Z,100144.66
2018-11-07T18:56:32.324Z,100142.91
2018-11-07T18:59:02.287Z,100151.81
2018-11-07T19:01:31.659Z,100150.89
2018-11-07T19:04:01.161Z,100153.57
2018-11-07T19:06:30.295Z,100152.22
2018-11-07T19:08:59.567Z,100155.23
2018-11-07T19:11:28.493Z,100154.23
2018-11-07T19:13:57.471Z,100155.45
2018-11-07T19:16:26.409Z,100156.42
2018-11-07T19:18:55.636Z,100148.81
2018-11-07T19:21:25.180Z,100140.83
2018-11-07T19:23:54.618Z,100134.59
2018-11-07T19:26:23.899Z,100139.11
2018-11-07T19:28:53.369Z,100138.55
2018-11-07T19:31:22.906Z,100138.70
2018-11-07T19:33:52.175Z,100136.52
2018-11-07T19:36:21.190Z,100135.73
2018-11-07T19:38:50.170Z,100140.09
2018-11-07T19:41:19.175Z,100140.09
2018-11-07T19:43:48.214Z,100143.02
2018-11-07T19:46:17.221Z,100150.92
2018-11-07T19:48:46.166Z,100152.00
2018-11-07T19:51:15.193Z,100149.37
2018-11-07T19:53:44.608Z,100153.81
2018-11-07T19:56:13.602Z,100155.17
2018-11-07T19:58:42.517Z,100157.78
2018-11-07T20:01:11.541Z,100155.06
2018-11-07T20:03:41.510Z,100160.78
2018-11-07T20:06:10.563Z,100165.47
2018-11-07T20:08:39.546Z,100172.73
2018-11-07T20:11:08.543Z,100175.03
2018-11-07T20:13:37.521Z,100174.92
2018-11-07T20:16:06.537Z,100179.66
2018-11-07T20:18:35.497Z,100190.98
2018-11-07T20:21:04.522Z,100189.47
2018-11-07T20:23:33.477Z,100194.66
2018-11-07T20:26:02.450Z,100191.01
2018-11-07T20:28:31.373Z,100192.69
2018-11-07T20:31:00.905Z,100201.22
2018-11-07T20:33:29.837Z,100204.73
2018-11-07T20:35:58.937Z,100210.14
2018-11-07T20:38:27.841Z,100207.63
2018-11-07T20:40:56.801Z,100219.84
2018-11-07T20:43:25.750Z,100218.95
2018-11-07T20:45:54.746Z,100223.87
2018-11-07T20:48:23.679Z,100230.09
2018-11-07T20:50:52.661Z,100227.46
2018-11-07T20:53:21.576Z,100233.73
2018-11-07T20:55:53.107Z,100235.67
2018-11-07T20:58:25.359Z,100242.00
2018-11-07T21:00:54.329Z,100244.48
2018-11-07T21:03:23.287Z,100244.38
2018-11-07T21:05:52.299Z,100247.80
2018-11-07T21:08:21.367Z,100245.05
2018-11-07T21:10:50.443Z,100249.47
2018-11-07T21:13:19.441Z,100251.91
2018-11-07T21:15:48.426Z,100263.37
2018-11-07T21:18:17.382Z,100271.98
2018-11-07T21:34:41.038Z,100267.91
2018-11-07T21:37:10.639Z,100282.44
2018-11-07T21:39:40.093Z,100271.67
2018-11-07T21:49:10.926Z,100288.78
2018-11-07T21:51:39.918Z,100284.05
2018-11-07T21:54:08.925Z,100287.41
2018-11-07T21:56:38.144Z,100290.30
2018-11-07T21:59:07.141Z,100283.73
2018-11-07T22:01:36.066Z,100289.25
2018-11-07T22:04:05.654Z,100290.11
2018-11-07T22:06:34.609Z,100286.47
2018-11-07T22:09:03.926Z,100290.81
2018-11-07T22:11:33.410Z,100291.33
2018-11-07T22:17:33.102Z,100291.39
2018-11-07T22:20:02.435Z,100297.40
2018-11-07T22:22:31.341Z,100297.33
2018-11-07T22:25:00.346Z,100303.34
2018-11-07T22:27:29.292Z,100299.55
2018-11-07T22:29:58.285Z,100304.74
2018-11-07T22:32:27.373Z,100303.30
2018-11-07T22:34:56.731Z,100303.03
2018-11-07T22:37:26.339Z,100297.29
2018-11-07T22:39:55.613Z,100300.41
2018-11-07T22:42:24.863Z,100304.50
2018-11-07T22:44:54.127Z,100311.95
2018-11-07T22:47:23.038Z,100315.83
2018-11-07T22:49:52.305Z,100316.58
2018-11-07T22:52:21.781Z,100318.46
2018-11-07T22:54:50.747Z,100325.16
2018-11-07T22:57:19.770Z,100323.48
2018-11-07T22:59:48.707Z,100338.81
2018-11-07T23:02:17.671Z,100338.09
2018-11-07T23:08:18.746Z,100340.73
2018-11-07T23:10:48.047Z,100345.81
2018-11-07T23:20:16.982Z,100342.77
2018-11-07T23:22:46.733Z,100347.47
2018-11-07T23:25:23.083Z,100346.95
2018-11-07T23:27:53.443Z,100350.88
2018-11-07T23:30:22.843Z,100351.95
2018-11-07T23:32:52.300Z,100354.60
2018-11-07T23:35:21.726Z,100362.01
2018-11-07T23:37:51.131Z,100361.50
2018-11-07T23:40:20.563Z,100363.31
2018-11-07T23:42:49.926Z,100364.29
2018-11-07T23:45:18.930Z,100352.23
2018-11-07T23:47:47.886Z,100355.66
2018-11-07T23:50:16.896Z,100363.88
2018-11-07T23:52:48.975Z,100365.95
2018-11-07T23:55:19.739Z,100371.48
2018-11-07T23:57:50.583Z,100378.33
